ROMMA est une association bénévole à but non lucratif. Votre soutien est indispensable : ADHERER à ROMMA ou FAIRE un DON

Pinsot - (38, Isère)

Vallée du Haut Bréda (750 m)   Longitude: 06° 06' E   Latitude: 45° 21' N Station partenaire n°101
 

Détail journalier du     <<     >>

Température Precipitation Humidité Pression Vent Dir Rafale Dir. rafale Ensol.
Heure (°C) (mm) (%) (hPa) (km/h) (km/h) (min)
01:00 -5.708810321SSO8SSO0
02:00 -5.8088103206SSO0
03:00 -5.9088103206SO0
04:00 -6.108910322SSO8SSO0
05:00 -6.008910311SSO8SSO0
06:00 -6.108910321SSO6SSO0
07:00 -6.208910321SSO8SSO0
08:00 -6.208910321SSO8SSO0
09:00 -5.708810334SSO15SSO0
10:00 -4.80871033000
11:00 -4.10861033000
12:00 -2.307710330010
13:00 -0.807210334N16N57
14:00 -0.707210333N15N38
15:00 -0.506910331NNE13NNE24
16:00 -0.807510342NE15NNE20
17:00 -2.0081103402S0
18:00 -2.7083103506SSO0
19:00 -3.2083103503SSO0
20:00 -3.40831035010SSO0
21:00 -3.7084103508SSO0
22:00 -3.608410352SSO13S0
23:00 -4.4087103506SSO0
minuit -4.708810342SSO8SSO0

Graphique du 04-01-2019

 

Serveur OMMA